Time;durP1;ratioP1;P1;durP2;ratioP2;P2;SDS_P1;SDS_P2;PMS_P1;PMS_P2;Temp;Humidity;BMP_temperature;BMP_pressure;BME280_temperature;BME280_humidity;BME280_pressure;Samples;Min_cycle;Max_cycle;Signal;HPM_P1;HPM_P2
2023/04/13 00:00:37;;;;;;;0.00;0.00;;;8.20;99.90;;;;;;5077938;28;20584;-59
2023/04/13 00:03:04;;;;;;;0.00;0.00;;;8.10;99.90;;;;;;5092077;28;20179;-59
2023/04/13 00:05:30;;;;;;;0.00;0.00;;;8.10;99.90;;;;;;5087873;28;20212;-59
2023/04/13 00:07:56;;;;;;;0.00;0.00;;;8.00;99.90;;;;;;5091640;28;20184;-59
2023/04/13 00:10:22;;;;;;;0.00;0.00;;;8.00;99.90;;;;;;5091983;28;20560;-59
2023/04/13 00:12:48;;;;;;;0.00;0.00;;;7.90;99.90;;;;;;5092645;28;20184;-61
2023/04/13 00:15:20;;;;;;;0.00;0.00;;;7.80;99.90;;;;;;5092235;28;20546;-60
2023/04/13 00:17:46;;;;;;;0.00;0.00;;;7.70;99.90;;;;;;5092403;28;20184;-60
2023/04/13 00:20:12;;;;;;;0.00;0.00;;;7.60;99.90;;;;;;5092305;28;20178;-60
2023/04/13 00:22:42;;;;;;;0.00;0.00;;;7.50;99.90;;;;;;5092227;28;20188;-60
2023/04/13 00:25:10;;;;;;;0.00;0.00;;;7.50;99.90;;;;;;5092208;28;20176;-60
2023/04/13 00:27:38;;;;;;;0.00;0.00;;;7.50;99.90;;;;;;5091699;28;20220;-60
2023/04/13 00:30:15;;;;;;;0.00;0.00;;;7.50;99.90;;;;;;5092557;28;20259;-60
2023/04/13 00:32:42;;;;;;;0.00;0.00;;;7.50;99.90;;;;;;5091952;28;20233;-60
2023/04/13 00:35:10;;;;;;;0.00;0.00;;;7.60;99.90;;;;;;5092075;28;20172;-60
2023/04/13 00:37:37;;;;;;;0.00;0.00;;;7.60;99.90;;;;;;5074348;28;20168;-60
2023/04/13 00:40:07;;;;;;;0.00;0.00;;;7.60;99.90;;;;;;5091894;28;20187;-62
2023/04/13 00:42:33;;;;;;;0.03;0.03;;;7.60;99.90;;;;;;5091795;28;20171;-61
2023/04/13 00:45:00;;;;;;;0.00;0.00;;;7.50;99.90;;;;;;5092513;28;20176;-60
2023/04/13 00:47:27;;;;;;;0.00;0.00;;;7.50;99.90;;;;;;5091984;28;20243;-60
2023/04/13 00:49:57;;;;;;;0.00;0.00;;;7.50;99.90;;;;;;5091624;28;20183;-60
2023/04/13 00:52:22;;;;;;;0.00;0.00;;;7.50;99.90;;;;;;5091541;28;20176;-60
2023/04/13 00:54:51;;;;;;;0.00;0.00;;;7.50;99.90;;;;;;5091341;28;20237;-60
2023/04/13 00:57:19;;;;;;;0.00;0.00;;;7.40;99.90;;;;;;5079880;28;20535;-60
2023/04/13 00:59:48;;;;;;;0.00;0.00;;;7.50;99.90;;;;;;5063179;28;20184;-60
2023/04/13 01:02:14;;;;;;;0.00;0.00;;;7.40;99.90;;;;;;5091349;28;20234;-60
2023/04/13 01:04:40;;;;;;;0.00;0.00;;;7.40;99.90;;;;;;5091692;28;20191;-60
2023/04/13 01:07:29;;;;;;;0.00;0.00;;;7.40;99.90;;;;;;5081469;28;20220;-60
2023/04/13 01:10:09;;;;;;;0.00;0.00;;;7.40;99.90;;;;;;5089972;28;20180;-60
2023/04/13 01:13:09;;;;;;;0.00;0.00;;;7.40;99.90;;;;;;5091694;28;20172;-60
2023/04/13 01:15:38;;;;;;;0.00;0.00;;;7.40;99.90;;;;;;5071579;28;20260;-60
2023/04/13 01:18:07;;;;;;;0.00;0.00;;;7.40;99.90;;;;;;5073023;28;20491;-60
2023/04/13 01:20:36;;;;;;;0.00;0.00;;;7.40;99.90;;;;;;5091604;28;20223;-60
2023/04/13 01:23:12;;;;;;;0.00;0.00;;;7.40;99.90;;;;;;5091479;28;20203;-60
2023/04/13 01:25:40;;;;;;;0.00;0.00;;;7.40;99.90;;;;;;5091460;28;20704;-60
2023/04/13 01:28:14;;;;;;;0.00;0.00;;;7.40;99.90;;;;;;5090885;28;20567;-60
2023/04/13 01:30:41;;;;;;;0.00;0.00;;;7.30;99.90;;;;;;5091374;28;20256;-60
2023/04/13 01:33:08;;;;;;;0.00;0.00;;;7.30;99.90;;;;;;5090712;28;20176;-60
2023/04/13 01:35:35;;;;;;;0.00;0.00;;;7.30;99.90;;;;;;5090115;28;20232;-60
2023/04/13 01:38:01;;;;;;;0.00;0.00;;;7.30;99.90;;;;;;5090812;28;20191;-60
2023/04/13 01:40:29;;;;;;;0.00;0.00;;;7.30;99.90;;;;;;5090315;28;20164;-60
2023/04/13 01:42:56;;;;;;;0.00;0.00;;;7.20;99.90;;;;;;5089683;28;20180;-59
2023/04/13 01:45:27;;;;;;;0.00;0.00;;;7.30;99.90;;;;;;5090572;28;20183;-60
2023/04/13 01:48:20;;;;;;;0.00;0.00;;;7.20;99.90;;;;;;5085777;28;20188;-60
2023/04/13 01:50:53;;;;;;;0.00;0.00;;;7.20;99.90;;;;;;5090133;28;20184;-60
2023/04/13 01:53:23;;;;;;;0.00;0.00;;;7.10;99.90;;;;;;5090971;28;20221;-60
2023/04/13 01:55:49;;;;;;;0.00;0.00;;;7.10;99.90;;;;;;5091003;28;20556;-60
2023/04/13 01:58:17;;;;;;;0.00;0.00;;;7.00;99.90;;;;;;5090854;28;20252;-61
2023/04/13 02:00:44;;;;;;;0.00;0.00;;;7.00;99.90;;;;;;5091280;28;20176;-60
2023/04/13 02:03:11;;;;;;;0.00;0.00;;;7.00;99.90;;;;;;5090860;28;20184;-60
2023/04/13 02:05:37;;;;;;;0.00;0.00;;;7.00;99.90;;;;;;5080789;28;20204;-60
2023/04/13 02:08:04;;;;;;;0.00;0.00;;;6.90;99.90;;;;;;5079777;28;20229;-60
2023/04/13 02:10:31;;;;;;;0.00;0.00;;;6.90;99.90;;;;;;5091263;28;20643;-60
2023/04/13 02:12:57;;;;;;;0.00;0.00;;;6.80;99.90;;;;;;5072963;28;20200;-61
2023/04/13 02:15:22;;;;;;;0.00;0.00;;;6.80;99.90;;;;;;5094012;28;20176;-60
2023/04/13 02:17:49;;;;;;;0.00;0.00;;;6.80;99.90;;;;;;5094725;28;20180;-61
2023/04/13 02:20:14;;;;;;;0.00;0.00;;;6.70;99.90;;;;;;5094865;28;20175;-60
2023/04/13 02:22:40;;;;;;;0.00;0.00;;;6.70;99.90;;;;;;5094995;28;20179;-60
2023/04/13 02:25:07;;;;;;;0.00;0.00;;;6.70;99.90;;;;;;5094997;28;20160;-61
2023/04/13 02:27:37;;;;;;;0.00;0.00;;;6.60;99.90;;;;;;5073025;28;20590;-61
2023/04/13 02:30:07;;;;;;;0.00;0.00;;;6.60;99.90;;;;;;5074630;28;20636;-60
2023/04/13 02:32:34;;;;;;;0.00;0.00;;;6.60;99.90;;;;;;5074146;28;20586;-60
2023/04/13 02:35:00;;;;;;;0.00;0.00;;;6.60;99.90;;;;;;5074577;28;20823;-60
2023/04/13 02:37:28;;;;;;;0.00;0.00;;;6.60;99.90;;;;;;5074122;28;20267;-60
2023/04/13 02:39:54;;;;;;;0.00;0.00;;;6.60;99.90;;;;;;5073845;28;20188;-60
2023/04/13 02:42:20;;;;;;;0.00;0.00;;;6.60;99.90;;;;;;5074312;28;20230;-59
2023/04/13 02:44:46;;;;;;;0.00;0.00;;;6.60;99.90;;;;;;5074032;28;20260;-60
2023/04/13 02:47:11;;;;;;;0.00;0.00;;;6.60;99.90;;;;;;5073960;28;20809;-60
2023/04/13 02:49:37;;;;;;;0.00;0.00;;;6.70;99.90;;;;;;5072886;28;20187;-60
2023/04/13 02:52:02;;;;;;;0.00;0.00;;;6.70;99.90;;;;;;5073949;28;20230;-60
2023/04/13 02:54:28;;;;;;;0.10;0.10;;;6.70;99.90;;;;;;5073730;28;20222;-60
2023/04/13 02:56:54;;;;;;;0.00;0.00;;;6.70;99.90;;;;;;5074022;28;20185;-60
2023/04/13 02:59:21;;;;;;;0.00;0.00;;;6.70;99.90;;;;;;5073663;28;20173;-60
2023/04/13 03:01:47;;;;;;;0.00;0.00;;;6.60;99.90;;;;;;5073523;28;20185;-60
2023/04/13 03:04:13;;;;;;;0.00;0.00;;;6.60;99.90;;;;;;5073286;28;20578;-60
2023/04/13 03:06:41;;;;;;;0.00;0.00;;;6.70;99.90;;;;;;5073044;28;20346;-60
2023/04/13 03:09:07;;;;;;;0.00;0.00;;;6.70;99.90;;;;;;5059544;28;20291;-60
2023/04/13 03:11:33;;;;;;;0.05;0.05;;;6.70;99.90;;;;;;5067351;28;20283;-60
2023/04/13 03:13:59;;;;;;;0.00;0.00;;;6.80;99.90;;;;;;5073143;28;20319;-60
2023/04/13 03:16:25;;;;;;;0.00;0.00;;;6.80;99.90;;;;;;5072836;28;20700;-60
2023/04/13 03:18:51;;;;;;;0.00;0.00;;;6.80;99.90;;;;;;5073554;28;20247;-60
2023/04/13 03:21:16;;;;;;;0.00;0.00;;;6.90;99.90;;;;;;5073182;28;20200;-60
2023/04/13 03:23:43;;;;;;;0.00;0.00;;;6.90;99.90;;;;;;5073380;28;20257;-60
2023/04/13 03:26:08;;;;;;;0.00;0.00;;;7.00;99.90;;;;;;5072896;28;20212;-60
2023/04/13 03:28:34;;;;;;;0.00;0.00;;;7.00;99.90;;;;;;5092005;28;20242;-60
2023/04/13 03:31:00;;;;;;;0.00;0.00;;;7.00;99.90;;;;;;5093705;28;20179;-60
2023/04/13 03:33:26;;;;;;;0.00;0.00;;;7.10;99.90;;;;;;5093132;28;20176;-60
2023/04/13 03:35:51;;;;;;;0.00;0.00;;;7.10;99.90;;;;;;5093155;28;20640;-60
2023/04/13 03:38:17;;;;;;;0.00;0.00;;;7.20;99.90;;;;;;5091785;28;20217;-60
2023/04/13 03:40:43;;;;;;;0.00;0.00;;;7.20;99.90;;;;;;5083557;28;20505;-60
2023/04/13 03:43:09;;;;;;;0.00;0.00;;;7.20;99.90;;;;;;5092532;28;20181;-59
2023/04/13 03:45:34;;;;;;;0.00;0.00;;;7.20;99.90;;;;;;5091715;28;20263;-59
2023/04/13 03:48:00;;;;;;;0.00;0.00;;;7.30;99.90;;;;;;5092525;28;20181;-59
2023/04/13 03:50:25;;;;;;;0.00;0.00;;;7.30;99.90;;;;;;5092187;28;20275;-59
2023/04/13 03:52:51;;;;;;;0.00;0.00;;;7.30;99.90;;;;;;5092469;28;20674;-58
2023/04/13 03:55:17;;;;;;;0.00;0.00;;;7.30;99.90;;;;;;5092364;28;20180;-58
2023/04/13 03:57:42;;;;;;;0.00;0.00;;;7.40;99.90;;;;;;5092240;28;20290;-59
2023/04/13 04:00:12;;;;;;;0.00;0.00;;;7.40;99.90;;;;;;5092162;28;20176;-58
2023/04/13 04:02:38;;;;;;;0.00;0.00;;;7.40;99.90;;;;;;5092141;28;20586;-58
2023/04/13 04:05:04;;;;;;;0.00;0.00;;;7.40;99.90;;;;;;5092306;28;20204;-60
2023/04/13 04:07:30;;;;;;;0.00;0.00;;;7.40;99.90;;;;;;5091224;28;20243;-59
2023/04/13 04:09:55;;;;;;;0.00;0.00;;;7.40;99.90;;;;;;5091837;28;20205;-59
2023/04/13 04:12:21;;;;;;;0.40;0.40;;;7.40;99.90;;;;;;5082986;28;20228;-59
2023/04/13 04:14:46;;;;;;;0.00;0.00;;;7.40;99.90;;;;;;5074996;28;20183;-58
2023/04/13 04:17:12;;;;;;;0.00;0.00;;;7.40;99.90;;;;;;5076347;28;20309;-58
2023/04/13 04:19:37;;;;;;;0.00;0.00;;;7.40;99.90;;;;;;5091599;28;20185;-58
2023/04/13 04:22:05;;;;;;;0.00;0.00;;;7.40;99.90;;;;;;5092449;28;20242;-58
2023/04/13 04:24:31;;;;;;;0.00;0.00;;;7.40;99.90;;;;;;5092345;28;20635;-58
2023/04/13 04:26:58;;;;;;;0.00;0.00;;;7.40;99.90;;;;;;5091921;28;20234;-58
2023/04/13 04:29:33;;;;;;;0.00;0.00;;;7.40;99.90;;;;;;5092186;28;20172;-58
2023/04/13 04:32:03;;;;;;;0.00;0.00;;;7.40;99.90;;;;;;5092483;28;20523;-58
2023/04/13 04:34:30;;;;;;;0.00;0.00;;;7.40;99.90;;;;;;5091753;28;20183;-58
2023/04/13 04:36:56;;;;;;;0.00;0.00;;;7.40;99.90;;;;;;5091472;28;20717;-58
2023/04/13 04:39:22;;;;;;;0.00;0.00;;;7.40;99.90;;;;;;5091743;28;20176;-58
2023/04/13 04:41:49;;;;;;;0.00;0.00;;;7.40;99.90;;;;;;5092053;28;20177;-58
2023/04/13 04:44:15;;;;;;;0.00;0.00;;;7.40;99.90;;;;;;5092039;28;20173;-58
2023/04/13 04:46:42;;;;;;;0.00;0.00;;;7.40;99.90;;;;;;5092100;28;20215;-59
2023/04/13 04:49:08;;;;;;;0.00;0.00;;;7.40;99.90;;;;;;5092154;28;20217;-59
2023/04/13 04:51:35;;;;;;;0.00;0.00;;;7.40;99.90;;;;;;5092021;28;20237;-59
2023/04/13 04:54:02;;;;;;;0.00;0.00;;;7.40;99.90;;;;;;5092186;28;20195;-59
2023/04/13 04:56:28;;;;;;;0.00;0.00;;;7.40;99.90;;;;;;5092000;28;20176;-59
2023/04/13 04:58:53;;;;;;;0.00;0.00;;;7.40;99.90;;;;;;5091843;28;20172;-59
2023/04/13 05:01:25;;;;;;;0.00;0.00;;;7.40;99.90;;;;;;5091943;28;20658;-59
2023/04/13 05:03:51;;;;;;;0.00;0.00;;;7.40;99.90;;;;;;5091946;28;20259;-59
2023/04/13 05:06:17;;;;;;;0.00;0.00;;;7.40;99.90;;;;;;5091880;28;20211;-59
2023/04/13 05:08:43;;;;;;;0.00;0.00;;;7.40;99.90;;;;;;5091668;28;20171;-59
2023/04/13 05:11:09;;;;;;;0.00;0.00;;;7.40;99.90;;;;;;5091586;28;20180;-59
2023/04/13 05:13:35;;;;;;;0.00;0.00;;;7.40;99.90;;;;;;5091399;28;20186;-59
2023/04/13 05:16:00;;;;;;;0.00;0.00;;;7.40;99.90;;;;;;5091566;28;20275;-59
2023/04/13 05:18:29;;;;;;;0.00;0.00;;;7.40;99.90;;;;;;5091180;28;20184;-59
2023/04/13 05:20:55;;;;;;;0.00;0.00;;;7.40;99.90;;;;;;5078493;28;20176;-59
2023/04/13 05:23:21;;;;;;;0.00;0.00;;;7.40;99.90;;;;;;5091540;28;20180;-59
2023/04/13 05:25:46;;;;;;;0.00;0.00;;;7.40;99.90;;;;;;5090937;28;20736;-59
2023/04/13 05:28:12;;;;;;;0.00;0.00;;;7.40;99.90;;;;;;5090988;28;20228;-59
2023/04/13 05:30:37;;;;;;;0.00;0.00;;;7.40;99.90;;;;;;5090937;28;20210;-59
2023/04/13 05:33:05;;;;;;;0.00;0.00;;;7.40;99.90;;;;;;5091195;28;20175;-59
2023/04/13 05:35:30;;;;;;;0.00;0.00;;;7.50;99.90;;;;;;5073107;28;20259;-59
2023/04/13 05:37:58;;;;;;;0.00;0.00;;;7.50;99.90;;;;;;5090835;28;20825;-59
2023/04/13 05:40:24;;;;;;;0.00;0.00;;;7.50;99.90;;;;;;5090634;28;20225;-59
2023/04/13 05:42:50;;;;;;;0.00;0.00;;;7.50;99.90;;;;;;5091007;28;20561;-59
2023/04/13 05:45:15;;;;;;;0.00;0.00;;;7.60;99.90;;;;;;5090382;28;20168;-59
2023/04/13 05:47:41;;;;;;;0.00;0.00;;;7.60;99.90;;;;;;5090119;28;20745;-59
2023/04/13 05:50:08;;;;;;;0.00;0.00;;;7.70;99.90;;;;;;5090968;28;20179;-60
2023/04/13 05:52:33;;;;;;;0.00;0.00;;;7.70;99.90;;;;;;5090566;28;20179;-58
2023/04/13 05:55:00;;;;;;;0.05;0.05;;;7.70;99.90;;;;;;5091144;28;20176;-58
2023/04/13 05:57:25;;;;;;;0.00;0.00;;;7.70;99.90;;;;;;5090578;28;20176;-58
2023/04/13 05:59:52;;;;;;;0.00;0.00;;;7.80;99.90;;;;;;5090897;28;20650;-57
2023/04/13 06:02:18;;;;;;;0.00;0.00;;;7.80;99.90;;;;;;5090364;28;20176;-58
2023/04/13 06:04:44;;;;;;;0.00;0.00;;;7.80;99.90;;;;;;5090933;28;20187;-59
2023/04/13 06:07:10;;;;;;;0.00;0.00;;;7.80;99.90;;;;;;5090640;28;20212;-59
2023/04/13 06:09:35;;;;;;;0.20;0.20;;;7.90;99.90;;;;;;5090481;28;20178;-59
2023/04/13 06:12:01;;;;;;;0.00;0.00;;;7.90;99.90;;;;;;5072270;28;20184;-59
2023/04/13 06:14:27;;;;;;;0.00;0.00;;;8.00;99.90;;;;;;5090673;28;20172;-59
2023/04/13 06:16:52;;;;;;;0.00;0.00;;;7.90;99.90;;;;;;5090597;28;20176;-59
2023/04/13 06:19:18;;;;;;;0.00;0.00;;;7.90;99.90;;;;;;5087756;28;20513;-59
2023/04/13 06:21:43;;;;;;;0.00;0.00;;;7.90;99.90;;;;;;5084240;28;20215;-59
2023/04/13 06:24:09;;;;;;;0.00;0.00;;;8.00;99.90;;;;;;5089808;28;20180;-59
2023/04/13 06:26:35;;;;;;;0.00;0.00;;;8.00;99.90;;;;;;5051898;28;20220;-59
2023/04/13 06:29:01;;;;;;;0.00;0.00;;;8.00;99.90;;;;;;5052646;28;20216;-59
2023/04/13 06:31:27;;;;;;;0.00;0.00;;;8.00;99.90;;;;;;5072570;28;20632;-59
2023/04/13 06:33:53;;;;;;;0.00;0.00;;;8.00;99.90;;;;;;5072379;28;20187;-59
2023/04/13 06:36:18;;;;;;;0.00;0.00;;;8.00;99.90;;;;;;5090215;28;20172;-57
2023/04/13 06:38:44;;;;;;;0.00;0.00;;;8.10;99.90;;;;;;5090454;28;20184;-57
2023/04/13 06:41:10;;;;;;;0.00;0.00;;;8.10;99.90;;;;;;5090575;28;20176;-57
2023/04/13 06:43:36;;;;;;;0.00;0.00;;;8.20;99.90;;;;;;5090029;28;20187;-58
2023/04/13 06:46:03;;;;;;;0.00;0.00;;;8.30;99.90;;;;;;5090282;28;20286;-58
2023/04/13 06:48:29;;;;;;;0.00;0.00;;;8.30;99.90;;;;;;5090069;28;20237;-58
2023/04/13 06:50:56;;;;;;;0.00;0.00;;;8.40;99.90;;;;;;5090734;28;20183;-58
2023/04/13 06:53:22;;;;;;;0.00;0.00;;;8.50;99.90;;;;;;5089819;28;20519;-58
2023/04/13 06:55:47;;;;;;;0.00;0.00;;;8.60;99.90;;;;;;5090296;28;20267;-58
2023/04/13 06:58:13;;;;;;;0.00;0.00;;;8.60;99.90;;;;;;5089808;28;20176;-58
2023/04/13 07:00:38;;;;;;;0.00;0.00;;;8.70;99.90;;;;;;5091413;28;20512;-59
2023/04/13 07:03:04;;;;;;;0.00;0.00;;;8.90;99.90;;;;;;5059273;28;20232;-59
2023/04/13 07:05:30;;;;;;;0.00;0.00;;;9.00;99.90;;;;;;5093581;28;20272;-59
2023/04/13 07:07:56;;;;;;;0.00;0.00;;;9.10;99.90;;;;;;5094110;28;20176;-58
2023/04/13 07:10:22;;;;;;;0.00;0.00;;;9.60;99.90;;;;;;5093492;28;20225;-59
2023/04/13 07:12:47;;;;;;;0.00;0.00;;;9.90;99.90;;;;;;5093968;28;20658;-59
2023/04/13 07:15:14;;;;;;;0.00;0.00;;;10.00;99.90;;;;;;5093644;28;20181;-59
2023/04/13 07:17:39;;;;;;;0.00;0.00;;;10.00;99.90;;;;;;5094046;28;20172;-58
2023/04/13 07:20:06;;;;;;;0.00;0.00;;;9.80;99.90;;;;;;5093591;28;20191;-58
2023/04/13 07:22:32;;;;;;;0.00;0.00;;;9.80;99.90;;;;;;5093737;28;20362;-58
2023/04/13 07:24:58;;;;;;;0.00;0.00;;;9.80;99.90;;;;;;5087753;28;20195;-58
2023/04/13 07:27:24;;;;;;;0.00;0.00;;;9.70;99.90;;;;;;5093320;28;20232;-58
2023/04/13 07:29:53;;;;;;;0.00;0.00;;;9.60;99.90;;;;;;5093343;28;20176;-58
2023/04/13 07:32:20;;;;;;;0.00;0.00;;;9.60;99.90;;;;;;5093534;28;20225;-59
2023/04/13 07:34:46;;;;;;;0.00;0.00;;;9.60;99.90;;;;;;5093309;28;20631;-58
2023/04/13 07:37:12;;;;;;;0.00;0.00;;;9.50;99.90;;;;;;5093277;28;20184;-59
2023/04/13 07:39:37;;;;;;;0.00;0.00;;;9.40;99.90;;;;;;5093258;28;20172;-59
2023/04/13 07:42:03;;;;;;;0.00;0.00;;;9.50;99.90;;;;;;5093487;28;20229;-59
2023/04/13 07:44:29;;;;;;;0.00;0.00;;;9.50;99.90;;;;;;5092989;28;20218;-59
2023/04/13 07:46:55;;;;;;;0.00;0.00;;;9.60;99.90;;;;;;5093020;28;20215;-60
2023/04/13 07:49:22;;;;;;;0.00;0.00;;;9.80;99.90;;;;;;5093137;28;20169;-59
2023/04/13 07:51:48;;;;;;;0.00;0.00;;;10.00;99.90;;;;;;5093310;28;20654;-58
2023/04/13 07:54:15;;;;;;;0.00;0.00;;;10.30;99.50;;;;;;5092947;28;20176;-58
2023/04/13 07:56:40;;;;;;;0.00;0.00;;;10.40;98.30;;;;;;5093336;28;20258;-59
2023/04/13 07:59:06;;;;;;;0.00;0.00;;;10.30;98.00;;;;;;5093012;28;20510;-59
2023/04/13 08:01:31;;;;;;;0.00;0.00;;;10.40;98.60;;;;;;5092619;28;20183;-59
2023/04/13 08:03:57;;;;;;;0.00;0.00;;;10.50;98.80;;;;;;5093027;28;20179;-59
2023/04/13 08:06:23;;;;;;;0.00;0.00;;;10.90;98.40;;;;;;5092385;28;20295;-59
2023/04/13 08:08:48;;;;;;;0.00;0.00;;;11.20;96.90;;;;;;5092721;28;20172;-59
2023/04/13 08:11:14;;;;;;;0.00;0.00;;;11.40;96.90;;;;;;5091967;28;20534;-59
2023/04/13 08:13:40;;;;;;;0.00;0.00;;;11.70;96.50;;;;;;5092705;28;20666;-59
2023/04/13 08:16:07;;;;;;;0.00;0.00;;;11.80;95.70;;;;;;5091969;28;20177;-59
2023/04/13 08:18:32;;;;;;;0.00;0.00;;;12.00;95.30;;;;;;5092540;28;20192;-59
2023/04/13 08:20:58;;;;;;;0.00;0.00;;;12.10;95.10;;;;;;5092876;28;20199;-59
2023/04/13 08:23:24;;;;;;;0.00;0.00;;;11.90;94.40;;;;;;5089947;28;20535;-59
2023/04/13 08:25:50;;;;;;;0.00;0.00;;;11.60;94.10;;;;;;5054456;28;20287;-58
2023/04/13 08:28:15;;;;;;;0.00;0.00;;;11.40;94.40;;;;;;5072226;28;20267;-58
2023/04/13 08:30:41;;;;;;;0.00;0.00;;;11.10;95.50;;;;;;5079743;28;20172;-59
2023/04/13 08:33:07;;;;;;;0.00;0.00;;;11.10;96.30;;;;;;5092483;28;20180;-59
2023/04/13 08:35:37;;;;;;;0.00;0.00;;;10.80;96.10;;;;;;5091627;28;20182;-59
2023/04/13 08:38:04;;;;;;;0.00;0.00;;;10.60;96.50;;;;;;5092548;28;20176;-59
2023/04/13 08:40:34;;;;;;;0.00;0.00;;;10.50;97.40;;;;;;5092067;28;20187;-59
2023/04/13 08:43:00;;;;;;;0.00;0.00;;;10.60;97.90;;;;;;5092461;28;20589;-59
2023/04/13 08:45:27;;;;;;;0.00;0.00;;;10.80;98.00;;;;;;5091253;28;20176;-57
2023/04/13 08:47:52;;;;;;;0.00;0.00;;;11.00;97.80;;;;;;5091670;28;20212;-58
2023/04/13 08:50:18;;;;;;;0.00;0.00;;;11.10;97.40;;;;;;5092102;28;20796;-59
2023/04/13 08:52:44;;;;;;;0.00;0.00;;;11.20;96.60;;;;;;5092126;28;20176;-58
2023/04/13 08:55:09;;;;;;;0.00;0.00;;;11.30;96.80;;;;;;5091895;28;20184;-57
2023/04/13 08:57:36;;;;;;;0.00;0.00;;;11.40;96.00;;;;;;5091965;28;20229;-58
2023/04/13 09:00:12;;;;;;;0.00;0.00;;;11.20;95.50;;;;;;5091992;28;20259;-57
2023/04/13 09:02:39;;;;;;;0.00;0.00;;;11.10;96.30;;;;;;5091909;28;20654;-58
2023/04/13 09:05:14;;;;;;;0.00;0.00;;;11.10;96.50;;;;;;5091906;28;20521;-58
2023/04/13 09:07:42;;;;;;;0.00;0.00;;;10.90;96.20;;;;;;5091915;28;20207;-58
2023/04/13 09:10:08;;;;;;;0.00;0.00;;;10.80;97.10;;;;;;5091813;28;20184;-58
2023/04/13 09:12:34;;;;;;;0.00;0.00;;;10.70;97.60;;;;;;5091551;28;20180;-58
2023/04/13 09:15:01;;;;;;;0.00;0.00;;;10.60;98.10;;;;;;5091828;28;20211;-58
2023/04/13 09:17:29;;;;;;;0.00;0.00;;;10.60;98.70;;;;;;5091668;28;20169;-58
2023/04/13 09:19:58;;;;;;;0.00;0.00;;;10.50;97.80;;;;;;5091743;28;20180;-58
2023/04/13 09:22:27;;;;;;;0.00;0.00;;;10.60;98.30;;;;;;5091442;28;20206;-58
2023/04/13 09:24:53;;;;;;;0.00;0.00;;;10.70;97.70;;;;;;5080634;28;20176;-58
2023/04/13 09:27:20;;;;;;;0.00;0.00;;;10.70;97.50;;;;;;5070992;28;20235;-58
2023/04/13 09:29:53;;;;;;;0.00;0.00;;;10.80;97.50;;;;;;5071227;28;20263;-58
2023/04/13 09:32:24;;;;;;;0.00;0.00;;;10.90;97.50;;;;;;5071163;28;20172;-58
2023/04/13 09:35:03;;;;;;;0.00;0.00;;;11.00;97.40;;;;;;5071109;28;20539;-58
2023/04/13 09:37:32;;;;;;;0.00;0.00;;;11.00;96.70;;;;;;5071159;28;20715;-58
2023/04/13 09:40:10;;;;;;;0.00;0.00;;;10.80;97.00;;;;;;5071212;28;20177;-58
2023/04/13 09:42:37;;;;;;;0.00;0.00;;;10.70;97.20;;;;;;5071188;28;20275;-58
2023/04/13 09:45:03;;;;;;;0.00;0.00;;;10.50;97.60;;;;;;5075304;28;20183;-58
2023/04/13 09:47:39;;;;;;;0.00;0.00;;;10.40;97.50;;;;;;5072974;28;20219;-58
2023/04/13 09:50:22;;;;;;;0.00;0.00;;;10.40;98.10;;;;;;5091289;28;20253;-59
2023/04/13 09:52:58;;;;;;;0.00;0.00;;;10.30;98.20;;;;;;5091174;28;20538;-59
2023/04/13 09:55:24;;;;;;;0.00;0.00;;;10.20;98.50;;;;;;5091115;28;20202;-58
2023/04/13 09:57:51;;;;;;;0.00;0.00;;;10.10;98.50;;;;;;5091016;28;20196;-59
2023/04/13 10:00:19;;;;;;;0.00;0.00;;;10.10;98.90;;;;;;5090966;28;20214;-59
2023/04/13 10:02:48;;;;;;;0.00;0.00;;;10.10;99.30;;;;;;5090980;28;20179;-59
2023/04/13 10:05:14;;;;;;;0.00;0.00;;;10.10;99.40;;;;;;5091000;28;20222;-59
2023/04/13 10:07:45;;;;;;;0.00;0.00;;;10.20;99.20;;;;;;5091045;28;20208;-59
2023/04/13 10:10:11;;;;;;;0.00;0.00;;;10.30;99.30;;;;;;5090950;28;20580;-59
2023/04/13 10:12:47;;;;;;;0.00;0.00;;;10.20;99.40;;;;;;5090917;28;20271;-59
2023/04/13 10:15:21;;;;;;;0.00;0.00;;;10.40;99.80;;;;;;5090882;28;20160;-59
2023/04/13 10:18:11;;;;;;;0.00;0.00;;;10.60;99.30;;;;;;5090946;28;20228;-59
2023/04/13 10:20:37;;;;;;;0.10;0.10;;;10.60;99.40;;;;;;5091002;28;20237;-58
2023/04/13 10:23:04;;;;;;;0.00;0.00;;;10.50;99.70;;;;;;5090983;28;20176;-59
2023/04/13 10:25:30;;;;;;;0.00;0.00;;;10.60;99.90;;;;;;5074716;28;20195;-59
2023/04/13 10:27:57;;;;;;;0.00;0.00;;;10.50;99.70;;;;;;5070472;28;20228;-59
2023/04/13 10:30:23;;;;;;;0.00;0.00;;;10.60;99.90;;;;;;5070552;28;20576;-59
2023/04/13 10:33:04;;;;;;;0.00;0.00;;;10.50;99.90;;;;;;5070369;28;20177;-59
2023/04/13 10:35:32;;;;;;;0.00;0.00;;;10.60;99.90;;;;;;5072141;28;20180;-59
2023/04/13 10:37:58;;;;;;;0.13;0.13;;;10.60;99.90;;;;;;5074377;28;20524;-59
2023/04/13 10:40:23;;;;;;;0.00;0.00;;;10.70;99.90;;;;;;5074348;28;20179;-59
2023/04/13 10:42:50;;;;;;;0.00;0.00;;;10.80;99.90;;;;;;5074228;28;20217;-59
2023/04/13 10:45:25;;;;;;;0.00;0.00;;;11.00;99.90;;;;;;5080331;28;20208;-59
2023/04/13 10:47:51;;;;;;;0.00;0.00;;;11.20;99.90;;;;;;5094499;28;20261;-59
2023/04/13 10:50:22;;;;;;;0.00;0.00;;;11.40;99.60;;;;;;5094481;28;20183;-59
2023/04/13 10:53:07;;;;;;;0.00;0.00;;;11.40;98.80;;;;;;5094606;28;20187;-60
2023/04/13 10:55:34;;;;;;;0.00;0.00;;;11.50;98.30;;;;;;5094348;28;20200;-59
2023/04/13 10:58:01;;;;;;;0.00;0.00;;;11.40;98.30;;;;;;5094332;28;20245;-59
2023/04/13 11:00:29;;;;;;;0.00;0.00;;;11.20;98.10;;;;;;5094215;28;20573;-59
2023/04/13 11:02:57;;;;;;;0.00;0.00;;;11.10;98.70;;;;;;5094308;28;20222;-59
2023/04/13 11:05:24;;;;;;;0.00;0.00;;;10.90;99.00;;;;;;5094145;28;20237;-58
2023/04/13 11:07:51;;;;;;;0.08;0.03;;;10.90;99.50;;;;;;5094048;28;20288;-58
2023/04/13 11:10:24;;;;;;;0.00;0.00;;;11.00;99.60;;;;;;5076006;28;20766;-57
2023/04/13 11:12:51;;;;;;;0.00;0.00;;;11.00;99.50;;;;;;5094144;28;20195;-57
2023/04/13 11:15:31;;;;;;;0.00;0.00;;;11.10;99.70;;;;;;5093856;28;20172;-58
2023/04/13 11:17:58;;;;;;;0.00;0.00;;;11.20;99.40;;;;;;5094027;28;20176;-58
2023/04/13 11:20:34;;;;;;;0.00;0.00;;;11.30;99.10;;;;;;5093809;28;20639;-58
2023/04/13 11:23:02;;;;;;;0.00;0.00;;;11.40;98.90;;;;;;5093366;28;20184;-58
2023/04/13 11:25:29;;;;;;;0.00;0.00;;;11.70;99.00;;;;;;5073985;28;20196;-58
2023/04/13 11:27:59;;;;;;;0.00;0.00;;;12.00;98.60;;;;;;5086215;28;20296;-57
2023/04/13 11:30:25;;;;;;;0.00;0.00;;;12.40;98.10;;;;;;5092305;28;20175;-58
2023/04/13 11:32:54;;;;;;;0.00;0.00;;;12.50;97.50;;;;;;5093686;28;20215;-57
2023/04/13 11:35:22;;;;;;;0.00;0.00;;;12.40;97.00;;;;;;5093387;28;20176;-58
2023/04/13 11:37:51;;;;;;;0.00;0.00;;;11.90;97.90;;;;;;5093574;28;20172;-57
2023/04/13 11:40:20;;;;;;;0.00;0.00;;;11.60;99.70;;;;;;5093298;28;20184;-58
2023/04/13 11:42:49;;;;;;;0.00;0.00;;;11.50;99.90;;;;;;5074293;28;20314;-57
2023/04/13 11:45:15;;;;;;;0.00;0.00;;;11.40;99.40;;;;;;5051181;28;20230;-58
2023/04/13 11:47:42;;;;;;;0.00;0.00;;;11.50;99.20;;;;;;5093304;28;20306;-58
2023/04/13 11:50:09;;;;;;;0.00;0.00;;;11.50;99.60;;;;;;5092520;28;20639;-58
2023/04/13 11:52:36;;;;;;;0.00;0.00;;;11.60;99.00;;;;;;5093225;28;20241;-59
2023/04/13 11:55:03;;;;;;;0.00;0.00;;;11.70;99.60;;;;;;5075260;28;20172;-58
2023/04/13 11:57:30;;;;;;;0.00;0.00;;;11.70;99.40;;;;;;5093047;28;20180;-59
2023/04/13 11:59:56;;;;;;;0.00;0.00;;;12.20;99.90;;;;;;5092166;28;20231;-60
2023/04/13 12:02:30;;;;;;;0.10;0.10;;;12.30;97.90;;;;;;5092852;28;20725;-59
2023/04/13 12:04:56;;;;;;;0.00;0.00;;;12.20;97.60;;;;;;5092848;28;20266;-59
2023/04/13 12:07:25;;;;;;;0.00;0.00;;;11.70;98.60;;;;;;5091980;28;20340;-59
2023/04/13 12:09:52;;;;;;;0.00;0.00;;;11.50;99.20;;;;;;5092664;28;20168;-59
2023/04/13 12:12:23;;;;;;;0.00;0.00;;;11.40;99.10;;;;;;5091812;28;20184;-59
2023/04/13 12:14:57;;;;;;;0.00;0.00;;;11.40;99.10;;;;;;5092517;28;20893;-59
2023/04/13 12:17:30;;;;;;;0.00;0.00;;;11.40;98.80;;;;;;5092627;28;20180;-59
2023/04/13 12:19:56;;;;;;;0.00;0.00;;;11.50;98.90;;;;;;5091860;28;20297;-59
2023/04/13 12:22:22;;;;;;;0.00;0.00;;;11.70;98.80;;;;;;5091847;28;20183;-60
2023/04/13 12:24:47;;;;;;;0.00;0.00;;;12.00;99.10;;;;;;5084428;28;20180;-59
2023/04/13 12:27:13;;;;;;;0.00;0.00;;;12.10;98.20;;;;;;5091098;28;20224;-59
2023/04/13 12:29:39;;;;;;;0.00;0.00;;;12.30;97.50;;;;;;5092179;28;20175;-59
2023/04/13 12:32:15;;;;;;;0.00;0.00;;;12.40;97.60;;;;;;5092385;28;20259;-59
2023/04/13 12:34:42;;;;;;;0.00;0.00;;;12.80;97.10;;;;;;5092487;28;20168;-59
2023/04/13 12:37:08;;;;;;;0.00;0.00;;;13.20;96.50;;;;;;5092330;28;20204;-59
2023/04/13 12:39:33;;;;;;;0.00;0.00;;;13.40;95.40;;;;;;5092191;28;20267;-59
2023/04/13 12:42:00;;;;;;;0.00;0.00;;;13.30;95.20;;;;;;5092272;28;20309;-60
2023/04/13 12:44:25;;;;;;;0.00;0.00;;;13.40;95.40;;;;;;5092021;28;20273;-59
2023/04/13 12:46:51;;;;;;;0.00;0.00;;;13.50;95.80;;;;;;5091889;28;20741;-59
2023/04/13 12:49:16;;;;;;;0.00;0.00;;;13.50;96.20;;;;;;5092009;28;20274;-59
2023/04/13 12:51:42;;;;;;;0.00;0.00;;;13.60;95.90;;;;;;5092030;28;20156;-59
2023/04/13 12:54:12;;;;;;;0.00;0.00;;;13.80;95.90;;;;;;5092045;28;20251;-59